createdAt,value
2023-12-05T00:00:03.857Z,-1.05
2023-12-05T00:03:14.845Z,-1.16
2023-12-05T00:06:16.838Z,-1.07
2023-12-05T00:09:18.816Z,-0.96
2023-12-05T00:12:20.828Z,-1.21
2023-12-05T00:15:23.332Z,-0.86
2023-12-05T00:18:26.289Z,-0.85
2023-12-05T00:21:28.261Z,-0.91
2023-12-05T00:24:30.712Z,-1.27
2023-12-05T00:27:33.052Z,-1.11
2023-12-05T00:30:34.986Z,-1.13
2023-12-05T00:33:37.092Z,-1.27
2023-12-05T00:36:39.310Z,-1.32
2023-12-05T00:39:42.401Z,-1.23
2023-12-05T00:42:45.434Z,-1.25
2023-12-05T00:45:47.446Z,-1.27
2023-12-05T00:48:49.813Z,-1.31
2023-12-05T00:51:51.953Z,-1.28
2023-12-05T00:54:54.001Z,-1.41
2023-12-05T00:57:56.446Z,-1.30
2023-12-05T01:00:59.128Z,-1.36
2023-12-05T01:04:01.548Z,-1.28
2023-12-05T01:07:04.220Z,-1.25
2023-12-05T01:10:06.886Z,-1.22
2023-12-05T01:13:08.957Z,-1.29
2023-12-05T01:16:12.118Z,-1.34
2023-12-05T01:19:14.141Z,-1.34
2023-12-05T01:22:16.141Z,-1.42
2023-12-05T01:25:18.378Z,-1.51
2023-12-05T01:28:20.262Z,-1.46
2023-12-05T01:31:22.693Z,-1.43
2023-12-05T01:34:24.840Z,-1.45
2023-12-05T01:37:26.789Z,-1.42
2023-12-05T01:40:28.822Z,-1.42
2023-12-05T01:43:31.291Z,-1.43
2023-12-05T01:46:33.676Z,-1.43
2023-12-05T01:49:37.072Z,-1.44
2023-12-05T01:52:47.949Z,-1.44
2023-12-05T01:55:51.020Z,-1.44
2023-12-05T01:58:53.018Z,-1.53
2023-12-05T02:01:55.744Z,-1.48
2023-12-05T02:04:58.311Z,-1.55
2023-12-05T02:08:01.317Z,-1.51
2023-12-05T02:11:03.567Z,-1.60
2023-12-05T02:14:08.360Z,-1.49
2023-12-05T02:17:25.685Z,-1.58
2023-12-05T02:20:37.001Z,-1.55
2023-12-05T02:24:03.691Z,-1.54
2023-12-05T02:27:39.438Z,-1.52
2023-12-05T02:30:41.966Z,-1.58
2023-12-05T02:33:44.007Z,-1.63
2023-12-05T02:36:57.015Z,-1.71
2023-12-05T02:40:05.603Z,-1.60
2023-12-05T02:43:17.391Z,-1.53
2023-12-05T02:46:21.019Z,-1.48
2023-12-05T02:49:23.619Z,-1.50
2023-12-05T02:52:25.631Z,-1.57
2023-12-05T02:55:27.526Z,-1.54
2023-12-05T02:58:30.279Z,-1.49
2023-12-05T03:01:39.598Z,-1.56
2023-12-05T03:04:41.652Z,-1.55
2023-12-05T03:07:43.692Z,-1.55
2023-12-05T03:10:54.742Z,-1.51
2023-12-05T03:14:03.983Z,-1.42
2023-12-05T03:17:06.042Z,-1.42
2023-12-05T03:20:08.698Z,-1.45
2023-12-05T03:23:10.884Z,-1.43
2023-12-05T03:26:20.608Z,-1.35
2023-12-05T03:29:22.519Z,-1.28
2023-12-05T03:32:24.632Z,-1.30
2023-12-05T03:35:26.616Z,-1.18
2023-12-05T03:38:28.525Z,-1.13
2023-12-05T03:41:30.549Z,-1.01
2023-12-05T03:44:32.522Z,-0.97
2023-12-05T03:47:34.560Z,-1.02
2023-12-05T03:50:36.636Z,-1.04
2023-12-05T03:53:38.580Z,-1.01
2023-12-05T03:56:40.506Z,-1.02
2023-12-05T03:59:42.560Z,-0.90
2023-12-05T04:02:46.305Z,-0.89
2023-12-05T04:05:48.329Z,-0.94
2023-12-05T04:08:51.288Z,-1.00
2023-12-05T04:11:53.354Z,-0.93
2023-12-05T04:14:55.705Z,-0.90
2023-12-05T04:17:57.872Z,-0.88
2023-12-05T04:20:59.988Z,-0.90
2023-12-05T04:24:01.949Z,-0.78
2023-12-05T04:27:04.913Z,-0.76
2023-12-05T04:30:08.083Z,-0.68
2023-12-05T04:33:10.227Z,-0.66
2023-12-05T04:36:12.762Z,-0.66
2023-12-05T04:39:14.828Z,-0.71
2023-12-05T04:42:16.858Z,-0.78
2023-12-05T04:45:18.812Z,-0.79
2023-12-05T04:48:20.887Z,-0.82
2023-12-05T04:51:22.873Z,-0.69
2023-12-05T04:54:24.972Z,-0.78
2023-12-05T04:57:29.615Z,-0.70
2023-12-05T05:00:32.910Z,-0.78
2023-12-05T05:03:34.940Z,-0.83
2023-12-05T05:06:37.055Z,-0.84
2023-12-05T05:09:42.058Z,-0.84
2023-12-05T05:12:44.054Z,-1.02
2023-12-05T05:15:46.185Z,-0.83
2023-12-05T05:18:49.151Z,-0.75
2023-12-05T05:21:51.315Z,-0.72
2023-12-05T05:24:53.422Z,-0.87
2023-12-05T05:27:55.581Z,-0.76
2023-12-05T05:30:58.870Z,-0.73
2023-12-05T05:34:01.088Z,-0.73
2023-12-05T05:37:03.632Z,-0.84
2023-12-05T05:40:08.016Z,-0.72
2023-12-05T05:43:10.673Z,-0.81
2023-12-05T05:46:13.082Z,-0.66
2023-12-05T05:49:15.156Z,-0.68
2023-12-05T05:52:17.168Z,-0.84
2023-12-05T05:55:26.119Z,-0.42
2023-12-05T05:58:29.249Z,-0.32
2023-12-05T06:01:31.435Z,-0.31
2023-12-05T06:04:33.477Z,-0.27
2023-12-05T06:07:35.686Z,-0.12
2023-12-05T06:10:37.664Z,-0.08
2023-12-05T06:13:39.671Z,-0.25
2023-12-05T06:16:41.685Z,-0.13
2023-12-05T06:19:43.790Z,-0.15
2023-12-05T06:22:45.817Z,-0.06
2023-12-05T06:25:47.754Z,0.07
2023-12-05T06:28:49.745Z,0.17
2023-12-05T06:31:51.670Z,0.09
2023-12-05T06:34:53.627Z,0.30
2023-12-05T06:37:55.680Z,0.39
2023-12-05T06:40:57.689Z,-0.02
2023-12-05T06:43:59.600Z,0.42
2023-12-05T06:47:01.548Z,0.47
2023-12-05T06:50:12.414Z,0.55
2023-12-05T06:53:14.961Z,0.57
2023-12-05T06:56:17.612Z,0.39
2023-12-05T06:59:20.743Z,0.63
2023-12-05T07:02:22.676Z,0.71
2023-12-05T07:05:24.794Z,0.79
2023-12-05T07:08:28.044Z,0.72
2023-12-05T07:11:29.961Z,0.21
2023-12-05T07:14:35.917Z,0.96
2023-12-05T07:17:38.987Z,0.99
2023-12-05T07:20:41.139Z,1.00
2023-12-05T07:23:46.671Z,0.95
2023-12-05T07:26:51.886Z,1.08
2023-12-05T07:29:53.845Z,1.07
2023-12-05T07:32:55.936Z,1.08
2023-12-05T07:35:59.024Z,1.15
2023-12-05T07:39:00.977Z,1.17
2023-12-05T07:42:02.983Z,1.18
2023-12-05T07:45:06.762Z,1.18
2023-12-05T07:48:08.728Z,1.21
2023-12-05T07:51:15.817Z,1.19
2023-12-05T07:54:18.210Z,1.28
2023-12-05T07:57:23.681Z,1.30
2023-12-05T08:00:25.761Z,1.26
2023-12-05T08:03:27.865Z,1.31
2023-12-05T08:06:30.032Z,1.39
2023-12-05T08:09:32.288Z,1.44
2023-12-05T08:12:35.248Z,1.49
2023-12-05T08:15:37.341Z,1.56
2023-12-05T08:18:39.332Z,1.58
2023-12-05T08:21:41.306Z,1.55
2023-12-05T08:24:43.313Z,1.39
2023-12-05T08:27:45.331Z,1.44
2023-12-05T08:30:47.240Z,1.33
2023-12-05T08:33:49.863Z,1.57
2023-12-05T08:36:52.111Z,1.52
2023-12-05T08:39:54.124Z,1.40
2023-12-05T08:42:56.099Z,1.24
2023-12-05T08:45:58.117Z,1.61
2023-12-05T08:49:00.169Z,1.60
2023-12-05T08:52:02.253Z,1.56
2023-12-05T08:55:05.730Z,1.59
2023-12-05T08:58:07.991Z,1.56
2023-12-05T09:01:13.165Z,1.62
2023-12-05T09:04:15.456Z,1.55
2023-12-05T09:07:17.615Z,1.64
2023-12-05T09:10:20.351Z,1.63
2023-12-05T09:13:22.505Z,1.59
2023-12-05T09:16:24.480Z,1.53
2023-12-05T09:19:26.409Z,1.71
2023-12-05T09:22:29.423Z,1.67
2023-12-05T09:25:31.326Z,1.75
2023-12-05T09:28:33.792Z,1.71
2023-12-05T09:31:36.360Z,1.77
2023-12-05T09:34:38.517Z,1.81
2023-12-05T09:37:40.494Z,1.71
2023-12-05T09:40:42.445Z,1.75
2023-12-05T09:43:46.082Z,1.82
2023-12-05T09:46:52.208Z,1.84
2023-12-05T09:49:56.607Z,1.84
2023-12-05T09:53:00.812Z,1.84
2023-12-05T09:56:03.261Z,1.83
2023-12-05T09:59:05.159Z,1.83
2023-12-05T10:02:09.557Z,1.47
2023-12-05T10:05:17.290Z,1.58
2023-12-05T10:08:21.852Z,1.75
2023-12-05T10:11:28.381Z,1.75
2023-12-05T10:14:30.452Z,1.76
2023-12-05T10:17:34.550Z,1.71
2023-12-05T10:20:39.773Z,1.78
2023-12-05T10:23:41.951Z,1.80
2023-12-05T10:26:48.316Z,1.73
2023-12-05T10:29:50.314Z,1.76
2023-12-05T10:32:52.276Z,1.74
2023-12-05T10:35:54.496Z,1.74
2023-12-05T10:38:56.695Z,1.69
2023-12-05T10:41:58.619Z,1.72
2023-12-05T10:45:06.364Z,1.71
2023-12-05T10:48:08.829Z,1.82
2023-12-05T10:51:10.940Z,1.79
2023-12-05T10:54:14.313Z,1.82
2023-12-05T10:57:16.279Z,1.57
2023-12-05T11:00:20.006Z,1.80
2023-12-05T11:03:23.557Z,1.86
2023-12-05T11:06:27.436Z,1.87
2023-12-05T11:09:29.463Z,1.84
2023-12-05T11:12:32.269Z,1.89
2023-12-05T11:15:40.069Z,1.89
2023-12-05T11:18:45.187Z,1.87
2023-12-05T11:22:12.000Z,1.89
2023-12-05T11:25:25.507Z,1.93
2023-12-05T11:28:27.464Z,2.00
2023-12-05T11:31:38.522Z,2.02
2023-12-05T11:35:00.379Z,2.03
2023-12-05T11:38:13.782Z,1.81
2023-12-05T11:41:22.295Z,2.05
2023-12-05T11:44:24.397Z,2.01
2023-12-05T11:47:29.786Z,2.04
2023-12-05T11:50:49.998Z,2.04
2023-12-05T11:53:51.935Z,2.04
2023-12-05T11:57:11.725Z,2.06
2023-12-05T12:00:14.416Z,1.97
2023-12-05T12:03:16.497Z,1.91
2023-12-05T12:06:20.558Z,2.04
2023-12-05T12:09:23.282Z,2.02
2023-12-05T12:12:25.810Z,1.99
2023-12-05T12:15:37.314Z,1.83
2023-12-05T12:18:44.136Z,1.97
2023-12-05T12:21:53.279Z,1.57
2023-12-05T12:25:06.406Z,1.77
2023-12-05T12:28:08.302Z,1.59
2023-12-05T12:31:25.960Z,1.90
2023-12-05T12:34:28.746Z,1.87
2023-12-05T12:37:37.699Z,1.95
2023-12-05T12:40:44.975Z,1.94
2023-12-05T12:43:47.815Z,2.05
2023-12-05T12:46:49.714Z,2.06
2023-12-05T12:49:52.301Z,2.06
2023-12-05T12:52:55.980Z,2.06
2023-12-05T12:55:58.098Z,1.98
2023-12-05T12:59:04.306Z,1.83
2023-12-05T13:02:07.679Z,1.99
2023-12-05T13:05:09.915Z,1.72
2023-12-05T13:08:14.648Z,2.00
2023-12-05T13:11:18.156Z,1.87
2023-12-05T13:14:20.911Z,2.00
2023-12-05T13:17:23.194Z,1.96
2023-12-05T13:20:25.396Z,1.40
2023-12-05T13:23:27.413Z,1.99
2023-12-05T13:26:29.472Z,1.65
2023-12-05T13:29:31.627Z,1.99
2023-12-05T13:32:33.626Z,1.96
2023-12-05T13:35:35.624Z,1.95
2023-12-05T13:38:41.248Z,1.95
2023-12-05T13:41:43.783Z,1.93
2023-12-05T13:44:46.314Z,1.90
2023-12-05T13:47:48.414Z,1.55
2023-12-05T13:50:50.430Z,1.75
2023-12-05T13:53:52.464Z,1.76
2023-12-05T13:56:54.964Z,1.75
2023-12-05T13:59:56.931Z,1.81
2023-12-05T14:02:58.920Z,1.81
2023-12-05T14:06:01.309Z,1.71
2023-12-05T14:09:03.995Z,1.76
2023-12-05T14:12:12.714Z,1.86
2023-12-05T14:15:14.960Z,1.83
2023-12-05T14:18:17.004Z,1.73
2023-12-05T14:21:19.091Z,1.78
2023-12-05T14:24:20.963Z,1.75
2023-12-05T14:27:25.792Z,1.77
2023-12-05T14:30:28.116Z,1.76
2023-12-05T14:33:30.246Z,1.73
2023-12-05T14:36:32.344Z,1.74
2023-12-05T14:39:34.278Z,1.35
2023-12-05T14:42:38.877Z,1.69
2023-12-05T14:45:41.206Z,1.70
2023-12-05T14:48:43.236Z,1.34
2023-12-05T14:51:45.175Z,1.64
2023-12-05T14:54:47.261Z,1.46
2023-12-05T14:57:50.140Z,1.53
2023-12-05T15:00:55.145Z,1.25
2023-12-05T15:03:57.622Z,1.58
2023-12-05T15:07:00.099Z,1.66
2023-12-05T15:10:02.631Z,1.62
2023-12-05T15:13:04.713Z,1.64
2023-12-05T15:16:06.986Z,1.59
2023-12-05T15:19:10.551Z,1.62
2023-12-05T15:22:12.624Z,1.62
2023-12-05T15:25:14.847Z,1.59
2023-12-05T15:28:18.142Z,1.66
2023-12-05T15:31:20.267Z,1.69
2023-12-05T15:34:22.544Z,1.68
2023-12-05T15:37:24.687Z,1.65
2023-12-05T15:40:27.117Z,1.57
2023-12-05T15:43:29.008Z,1.71
2023-12-05T15:46:31.006Z,1.62
2023-12-05T15:49:33.926Z,1.61
2023-12-05T15:52:36.935Z,1.73
2023-12-05T15:55:38.989Z,1.51
2023-12-05T15:58:42.544Z,1.50
2023-12-05T16:01:47.380Z,1.76
2023-12-05T16:04:50.047Z,1.76
2023-12-05T16:07:52.040Z,1.52
2023-12-05T16:10:54.029Z,1.77
2023-12-05T16:13:56.181Z,1.77
2023-12-05T16:16:58.607Z,1.61
2023-12-05T16:20:00.710Z,1.47
2023-12-05T16:23:02.678Z,1.74
2023-12-05T16:26:05.127Z,1.66
2023-12-05T16:29:07.224Z,1.63
2023-12-05T16:32:09.199Z,1.69
2023-12-05T16:35:12.044Z,1.76
2023-12-05T16:38:13.996Z,1.78
2023-12-05T16:41:16.421Z,1.82
2023-12-05T16:44:18.307Z,1.84
2023-12-05T16:47:21.109Z,1.79
2023-12-05T16:50:23.304Z,1.86
2023-12-05T16:53:25.334Z,1.79
2023-12-05T16:56:27.422Z,1.78
2023-12-05T16:59:33.983Z,1.79
2023-12-05T17:02:37.315Z,1.90
2023-12-05T17:05:41.042Z,1.92
2023-12-05T17:08:43.034Z,1.92
2023-12-05T17:11:45.671Z,1.86
2023-12-05T17:14:47.758Z,1.89
2023-12-05T17:17:49.736Z,1.78
2023-12-05T17:20:51.746Z,1.87
2023-12-05T17:23:55.745Z,1.84
2023-12-05T17:26:57.803Z,1.90
2023-12-05T17:29:59.778Z,1.91
2023-12-05T17:33:01.863Z,1.91
2023-12-05T17:36:04.072Z,1.77
2023-12-05T17:39:06.032Z,1.92
2023-12-05T17:42:07.947Z,1.93
2023-12-05T17:45:10.279Z,1.92
2023-12-05T17:48:12.377Z,1.97
2023-12-05T17:51:14.488Z,1.99
2023-12-05T17:54:17.518Z,1.99
2023-12-05T17:57:23.128Z,1.99
2023-12-05T18:00:25.104Z,2.00
2023-12-05T18:03:27.555Z,1.77
2023-12-05T18:06:29.795Z,1.74
2023-12-05T18:09:31.830Z,2.04
2023-12-05T18:12:34.538Z,1.89
2023-12-05T18:15:36.657Z,2.12
2023-12-05T18:18:38.815Z,2.10
2023-12-05T18:21:40.976Z,2.14
2023-12-05T18:24:43.115Z,2.11
2023-12-05T18:27:45.872Z,2.11
2023-12-05T18:30:47.983Z,2.11
2023-12-05T18:33:51.318Z,2.12
2023-12-05T18:36:58.157Z,2.09
2023-12-05T18:40:00.668Z,2.14
2023-12-05T18:43:02.687Z,2.13
2023-12-05T18:46:05.706Z,2.07
2023-12-05T18:49:08.292Z,2.14
2023-12-05T18:52:10.384Z,2.13
2023-12-05T18:55:12.757Z,1.89
2023-12-05T18:58:14.675Z,2.08
2023-12-05T19:01:16.908Z,2.06
2023-12-05T19:04:19.269Z,2.01
2023-12-05T19:07:21.534Z,2.02
2023-12-05T19:10:24.000Z,1.89
2023-12-05T19:13:25.999Z,1.37
2023-12-05T19:16:27.961Z,2.01
2023-12-05T19:19:30.015Z,2.04
2023-12-05T19:22:31.981Z,2.04
2023-12-05T19:25:34.151Z,2.02
2023-12-05T19:28:46.209Z,2.12
2023-12-05T19:31:53.545Z,2.05
2023-12-05T19:34:55.640Z,2.11
2023-12-05T19:37:57.683Z,2.13
2023-12-05T19:40:59.671Z,1.82
2023-12-05T19:44:01.691Z,2.06
2023-12-05T19:47:03.965Z,1.94
2023-12-05T19:50:06.789Z,2.10
2023-12-05T19:53:08.781Z,2.10
2023-12-05T19:56:12.841Z,2.06
2023-12-05T19:59:15.065Z,2.02
2023-12-05T20:02:17.104Z,2.08
2023-12-05T20:05:19.159Z,2.03
2023-12-05T20:08:21.768Z,2.10
2023-12-05T20:11:23.822Z,2.00
2023-12-05T20:14:25.838Z,1.99
2023-12-05T20:17:29.513Z,1.91
2023-12-05T20:20:31.766Z,1.92
2023-12-05T20:23:34.945Z,1.84
2023-12-05T20:26:36.892Z,1.88
2023-12-05T20:29:38.892Z,1.82
2023-12-05T20:32:40.841Z,1.82
2023-12-05T20:35:42.840Z,1.81
2023-12-05T20:38:45.747Z,1.84
2023-12-05T20:41:47.888Z,1.86
2023-12-05T20:44:51.708Z,1.62
2023-12-05T20:47:53.735Z,1.92
2023-12-05T20:50:55.760Z,1.91
2023-12-05T20:53:57.687Z,1.71
2023-12-05T20:56:59.705Z,1.92
2023-12-05T21:00:02.297Z,1.82
2023-12-05T21:03:04.934Z,1.84
2023-12-05T21:06:08.771Z,1.80
2023-12-05T21:09:13.481Z,1.70
2023-12-05T21:12:15.883Z,1.70
2023-12-05T21:15:18.172Z,1.81
2023-12-05T21:18:20.443Z,1.80
2023-12-05T21:21:22.737Z,1.84
2023-12-05T21:24:24.801Z,1.56
2023-12-05T21:27:26.788Z,1.91
2023-12-05T21:30:28.665Z,1.93
2023-12-05T21:33:30.822Z,1.93
2023-12-05T21:36:33.239Z,1.89
2023-12-05T21:39:35.343Z,1.84
2023-12-05T21:42:37.330Z,1.72
2023-12-05T21:45:39.549Z,1.88
2023-12-05T21:48:41.595Z,1.92
2023-12-05T21:51:43.835Z,1.88
2023-12-05T21:54:45.836Z,1.91
2023-12-05T21:57:47.895Z,1.93
2023-12-05T22:00:49.978Z,1.88
2023-12-05T22:03:51.979Z,1.54
2023-12-05T22:06:53.967Z,1.75
2023-12-05T22:09:56.003Z,1.83
2023-12-05T22:12:58.070Z,1.80
2023-12-05T22:16:01.170Z,1.79
2023-12-05T22:19:03.393Z,1.80
2023-12-05T22:22:05.536Z,1.75
2023-12-05T22:25:07.944Z,1.63
2023-12-05T22:28:09.972Z,1.69
2023-12-05T22:31:14.795Z,1.74
2023-12-05T22:34:18.370Z,1.74
2023-12-05T22:37:21.265Z,1.76
2023-12-05T22:40:23.380Z,1.72
2023-12-05T22:43:46.805Z,1.56
2023-12-05T22:46:52.104Z,1.64
2023-12-05T22:49:54.103Z,1.59
2023-12-05T22:52:56.109Z,1.47
2023-12-05T22:55:57.987Z,1.43
2023-12-05T22:58:59.991Z,1.41
2023-12-05T23:02:01.921Z,1.43
2023-12-05T23:05:04.708Z,1.31
2023-12-05T23:08:06.667Z,1.36
2023-12-05T23:11:08.651Z,1.26
2023-12-05T23:14:10.872Z,1.22
2023-12-05T23:17:13.233Z,1.00
2023-12-05T23:20:15.542Z,1.19
2023-12-05T23:23:17.487Z,1.15
2023-12-05T23:26:19.995Z,1.06
2023-12-05T23:29:21.952Z,1.01
2023-12-05T23:32:23.923Z,0.95
2023-12-05T23:35:25.837Z,0.94
2023-12-05T23:38:27.813Z,0.90
2023-12-05T23:41:29.789Z,0.78
2023-12-05T23:44:31.783Z,0.92
2023-12-05T23:47:33.766Z,0.85
2023-12-05T23:50:35.774Z,0.90
2023-12-05T23:53:37.709Z,0.89
2023-12-05T23:56:39.919Z,0.77
2023-12-05T23:59:41.925Z,0.55
